sensor_id;sensor_type;location;lat;lon;timestamp;temperature;humidity
66140;DHT22;52945;51.908;8.364;2023-11-21T00:02:34;9.40;76.10
66140;DHT22;52945;51.908;8.364;2023-11-21T00:05:34;9.40;76.20
66140;DHT22;52945;51.908;8.364;2023-11-21T00:08:36;9.40;76.30
66140;DHT22;52945;51.908;8.364;2023-11-21T00:11:37;9.50;76.90
66140;DHT22;52945;51.908;8.364;2023-11-21T00:14:38;9.50;77.10
66140;DHT22;52945;51.908;8.364;2023-11-21T00:17:39;9.50;77.10
66140;DHT22;52945;51.908;8.364;2023-11-21T00:20:39;9.50;77.40
66140;DHT22;52945;51.908;8.364;2023-11-21T00:23:40;9.60;77.70
66140;DHT22;52945;51.908;8.364;2023-11-21T00:26:41;9.60;77.50
66140;DHT22;52945;51.908;8.364;2023-11-21T00:29:41;9.60;77.20
66140;DHT22;52945;51.908;8.364;2023-11-21T00:32:42;9.60;77.20
66140;DHT22;52945;51.908;8.364;2023-11-21T00:35:43;9.60;77.10
66140;DHT22;52945;51.908;8.364;2023-11-21T00:38:44;9.60;77.30
66140;DHT22;52945;51.908;8.364;2023-11-21T00:41:44;9.60;77.30
66140;DHT22;52945;51.908;8.364;2023-11-21T00:44:48;9.60;77.30
66140;DHT22;52945;51.908;8.364;2023-11-21T00:47:49;9.60;77.20
66140;DHT22;52945;51.908;8.364;2023-11-21T00:50:50;9.60;77.40
66140;DHT22;52945;51.908;8.364;2023-11-21T00:53:50;9.60;77.40
66140;DHT22;52945;51.908;8.364;2023-11-21T00:56:51;9.70;77.50
66140;DHT22;52945;51.908;8.364;2023-11-21T00:59:52;9.70;77.60
66140;DHT22;52945;51.908;8.364;2023-11-21T01:02:53;9.70;77.70
66140;DHT22;52945;51.908;8.364;2023-11-21T01:05:53;9.70;77.50
66140;DHT22;52945;51.908;8.364;2023-11-21T01:08:54;9.70;77.60
66140;DHT22;52945;51.908;8.364;2023-11-21T01:11:54;9.70;77.70
66140;DHT22;52945;51.908;8.364;2023-11-21T01:14:55;9.70;78.00
66140;DHT22;52945;51.908;8.364;2023-11-21T01:17:56;9.70;78.00
66140;DHT22;52945;51.908;8.364;2023-11-21T01:20:56;9.70;77.90
66140;DHT22;52945;51.908;8.364;2023-11-21T01:23:57;9.80;77.80
66140;DHT22;52945;51.908;8.364;2023-11-21T01:26:58;9.70;77.70
66140;DHT22;52945;51.908;8.364;2023-11-21T01:29:58;9.80;77.80
66140;DHT22;52945;51.908;8.364;2023-11-21T01:32:59;9.80;77.90
66140;DHT22;52945;51.908;8.364;2023-11-21T01:36:00;9.80;77.90
66140;DHT22;52945;51.908;8.364;2023-11-21T01:39:00;9.80;78.00
66140;DHT22;52945;51.908;8.364;2023-11-21T01:42:01;9.80;78.00
66140;DHT22;52945;51.908;8.364;2023-11-21T01:45:02;9.90;78.10
66140;DHT22;52945;51.908;8.364;2023-11-21T01:48:06;9.90;78.20
66140;DHT22;52945;51.908;8.364;2023-11-21T01:51:07;9.90;78.20
66140;DHT22;52945;51.908;8.364;2023-11-21T01:54:08;9.90;78.30
66140;DHT22;52945;51.908;8.364;2023-11-21T01:57:09;9.90;78.20
66140;DHT22;52945;51.908;8.364;2023-11-21T02:00:10;9.90;78.20
66140;DHT22;52945;51.908;8.364;2023-11-21T02:03:17;9.90;78.20
66140;DHT22;52945;51.908;8.364;2023-11-21T02:06:18;9.90;78.10
66140;DHT22;52945;51.908;8.364;2023-11-21T02:09:26;9.90;78.10
66140;DHT22;52945;51.908;8.364;2023-11-21T02:12:27;9.90;78.10
66140;DHT22;52945;51.908;8.364;2023-11-21T02:15:28;9.90;78.10
66140;DHT22;52945;51.908;8.364;2023-11-21T02:18:29;10.00;78.10
66140;DHT22;52945;51.908;8.364;2023-11-21T02:21:30;9.90;78.10
66140;DHT22;52945;51.908;8.364;2023-11-21T02:24:31;9.90;78.10
66140;DHT22;52945;51.908;8.364;2023-11-21T02:27:32;10.00;78.00
66140;DHT22;52945;51.908;8.364;2023-11-21T02:30:33;9.90;78.10
66140;DHT22;52945;51.908;8.364;2023-11-21T02:33:33;10.00;78.10
66140;DHT22;52945;51.908;8.364;2023-11-21T02:36:34;10.00;78.10
66140;DHT22;52945;51.908;8.364;2023-11-21T02:39:35;10.00;78.20
66140;DHT22;52945;51.908;8.364;2023-11-21T02:42:35;10.00;78.30
66140;DHT22;52945;51.908;8.364;2023-11-21T02:45:36;10.10;78.30
66140;DHT22;52945;51.908;8.364;2023-11-21T02:48:37;10.00;78.40
66140;DHT22;52945;51.908;8.364;2023-11-21T02:51:37;10.00;78.40
66140;DHT22;52945;51.908;8.364;2023-11-21T02:54:39;10.00;78.40
66140;DHT22;52945;51.908;8.364;2023-11-21T02:57:39;10.00;78.30
66140;DHT22;52945;51.908;8.364;2023-11-21T03:00:40;10.00;78.20
66140;DHT22;52945;51.908;8.364;2023-11-21T03:03:42;10.00;78.10
66140;DHT22;52945;51.908;8.364;2023-11-21T03:06:42;10.10;78.00
66140;DHT22;52945;51.908;8.364;2023-11-21T03:09:43;10.00;77.90
66140;DHT22;52945;51.908;8.364;2023-11-21T03:12:44;10.00;77.90
66140;DHT22;52945;51.908;8.364;2023-11-21T03:15:44;10.00;77.90
66140;DHT22;52945;51.908;8.364;2023-11-21T03:18:45;10.00;77.80
66140;DHT22;52945;51.908;8.364;2023-11-21T03:21:46;10.00;77.70
66140;DHT22;52945;51.908;8.364;2023-11-21T03:24:47;10.00;77.70
66140;DHT22;52945;51.908;8.364;2023-11-21T03:27:47;10.10;77.90
66140;DHT22;52945;51.908;8.364;2023-11-21T03:30:48;10.00;77.90
66140;DHT22;52945;51.908;8.364;2023-11-21T03:33:49;10.10;77.80
66140;DHT22;52945;51.908;8.364;2023-11-21T03:36:49;10.00;77.80
66140;DHT22;52945;51.908;8.364;2023-11-21T03:39:50;10.00;77.80
66140;DHT22;52945;51.908;8.364;2023-11-21T03:42:51;10.10;77.70
66140;DHT22;52945;51.908;8.364;2023-11-21T03:45:52;10.00;77.80
66140;DHT22;52945;51.908;8.364;2023-11-21T03:48:52;10.00;77.70
66140;DHT22;52945;51.908;8.364;2023-11-21T03:51:56;10.00;77.70
66140;DHT22;52945;51.908;8.364;2023-11-21T03:54:56;10.00;77.70
66140;DHT22;52945;51.908;8.364;2023-11-21T03:57:58;10.00;77.70
66140;DHT22;52945;51.908;8.364;2023-11-21T04:00:58;10.00;77.70
66140;DHT22;52945;51.908;8.364;2023-11-21T04:03:59;10.10;77.80
66140;DHT22;52945;51.908;8.364;2023-11-21T04:07:00;10.10;77.70
66140;DHT22;52945;51.908;8.364;2023-11-21T04:10:00;10.10;77.70
66140;DHT22;52945;51.908;8.364;2023-11-21T04:13:01;10.10;77.70
66140;DHT22;52945;51.908;8.364;2023-11-21T04:16:02;10.10;77.80
66140;DHT22;52945;51.908;8.364;2023-11-21T04:19:03;10.10;77.90
66140;DHT22;52945;51.908;8.364;2023-11-21T04:22:04;10.10;77.90
66140;DHT22;52945;51.908;8.364;2023-11-21T04:25:05;10.10;78.00
66140;DHT22;52945;51.908;8.364;2023-11-21T04:28:05;10.10;78.00
66140;DHT22;52945;51.908;8.364;2023-11-21T04:31:06;10.10;78.00
66140;DHT22;52945;51.908;8.364;2023-11-21T04:34:07;10.10;77.90
66140;DHT22;52945;51.908;8.364;2023-11-21T04:37:08;10.10;77.90
66140;DHT22;52945;51.908;8.364;2023-11-21T04:40:11;10.10;77.90
66140;DHT22;52945;51.908;8.364;2023-11-21T04:43:12;10.10;77.80
66140;DHT22;52945;51.908;8.364;2023-11-21T04:46:12;10.10;77.80
66140;DHT22;52945;51.908;8.364;2023-11-21T04:49:14;10.10;77.80
66140;DHT22;52945;51.908;8.364;2023-11-21T04:52:15;10.10;77.80
66140;DHT22;52945;51.908;8.364;2023-11-21T04:55:16;10.10;77.90
66140;DHT22;52945;51.908;8.364;2023-11-21T04:58:16;10.10;77.90
66140;DHT22;52945;51.908;8.364;2023-11-21T05:01:17;10.10;77.80
66140;DHT22;52945;51.908;8.364;2023-11-21T05:04:18;10.10;77.80
66140;DHT22;52945;51.908;8.364;2023-11-21T05:07:18;10.10;77.90
66140;DHT22;52945;51.908;8.364;2023-11-21T05:10:19;10.10;77.90
66140;DHT22;52945;51.908;8.364;2023-11-21T05:13:21;10.10;78.00
66140;DHT22;52945;51.908;8.364;2023-11-21T05:16:22;10.10;77.90
66140;DHT22;52945;51.908;8.364;2023-11-21T05:19:22;10.10;77.70
66140;DHT22;52945;51.908;8.364;2023-11-21T05:22:23;10.10;77.80
66140;DHT22;52945;51.908;8.364;2023-11-21T05:25:23;10.10;77.80
66140;DHT22;52945;51.908;8.364;2023-11-21T05:28:24;10.10;77.80
66140;DHT22;52945;51.908;8.364;2023-11-21T05:31:25;10.10;77.80
66140;DHT22;52945;51.908;8.364;2023-11-21T05:34:25;10.10;77.80
66140;DHT22;52945;51.908;8.364;2023-11-21T05:37:27;10.10;77.80
66140;DHT22;52945;51.908;8.364;2023-11-21T05:40:27;10.10;77.80
66140;DHT22;52945;51.908;8.364;2023-11-21T05:43:30;10.10;77.80
66140;DHT22;52945;51.908;8.364;2023-11-21T05:46:32;10.10;77.90
66140;DHT22;52945;51.908;8.364;2023-11-21T05:49:33;10.10;77.80
66140;DHT22;52945;51.908;8.364;2023-11-21T05:52:34;10.00;77.80
66140;DHT22;52945;51.908;8.364;2023-11-21T05:55:35;10.00;77.90
66140;DHT22;52945;51.908;8.364;2023-11-21T05:58:35;10.00;77.90
66140;DHT22;52945;51.908;8.364;2023-11-21T06:01:36;10.00;78.00
66140;DHT22;52945;51.908;8.364;2023-11-21T06:04:39;10.00;78.00
66140;DHT22;52945;51.908;8.364;2023-11-21T06:07:39;10.00;78.10
66140;DHT22;52945;51.908;8.364;2023-11-21T06:10:40;10.00;78.10
66140;DHT22;52945;51.908;8.364;2023-11-21T06:13:40;10.00;78.00
66140;DHT22;52945;51.908;8.364;2023-11-21T06:16:42;10.00;78.00
66140;DHT22;52945;51.908;8.364;2023-11-21T06:19:42;10.00;78.10
66140;DHT22;52945;51.908;8.364;2023-11-21T06:22:44;10.00;78.20
66140;DHT22;52945;51.908;8.364;2023-11-21T06:25:44;10.00;78.30
66140;DHT22;52945;51.908;8.364;2023-11-21T06:28:45;10.00;78.30
66140;DHT22;52945;51.908;8.364;2023-11-21T06:31:46;10.00;78.10
66140;DHT22;52945;51.908;8.364;2023-11-21T06:34:46;10.00;78.20
66140;DHT22;52945;51.908;8.364;2023-11-21T06:37:47;10.00;78.30
66140;DHT22;52945;51.908;8.364;2023-11-21T06:40:48;10.00;78.40
66140;DHT22;52945;51.908;8.364;2023-11-21T06:43:48;10.00;78.50
66140;DHT22;52945;51.908;8.364;2023-11-21T06:46:49;10.00;78.60
66140;DHT22;52945;51.908;8.364;2023-11-21T06:49:51;10.00;78.60
66140;DHT22;52945;51.908;8.364;2023-11-21T06:52:52;10.10;78.80
66140;DHT22;52945;51.908;8.364;2023-11-21T06:55:52;10.00;78.60
66140;DHT22;52945;51.908;8.364;2023-11-21T06:58:53;10.10;78.70
66140;DHT22;52945;51.908;8.364;2023-11-21T07:01:54;10.10;78.70
66140;DHT22;52945;51.908;8.364;2023-11-21T07:04:54;10.00;78.80
66140;DHT22;52945;51.908;8.364;2023-11-21T07:07:55;10.10;78.80
66140;DHT22;52945;51.908;8.364;2023-11-21T07:10:56;10.10;78.70
66140;DHT22;52945;51.908;8.364;2023-11-21T07:13:57;10.00;78.70
66140;DHT22;52945;51.908;8.364;2023-11-21T07:16:57;10.10;78.80
66140;DHT22;52945;51.908;8.364;2023-11-21T07:19:58;10.00;78.90
66140;DHT22;52945;51.908;8.364;2023-11-21T07:22:58;10.00;79.10
66140;DHT22;52945;51.908;8.364;2023-11-21T07:26:00;10.00;79.10
66140;DHT22;52945;51.908;8.364;2023-11-21T07:29:02;10.00;79.10
66140;DHT22;52945;51.908;8.364;2023-11-21T07:32:03;10.10;79.20
66140;DHT22;52945;51.908;8.364;2023-11-21T07:35:04;10.10;79.30
66140;DHT22;52945;51.908;8.364;2023-11-21T07:38:04;10.10;79.40
66140;DHT22;52945;51.908;8.364;2023-11-21T07:41:05;10.10;79.50
66140;DHT22;52945;51.908;8.364;2023-11-21T07:44:08;10.10;79.50
66140;DHT22;52945;51.908;8.364;2023-11-21T07:47:08;10.20;79.50
66140;DHT22;52945;51.908;8.364;2023-11-21T07:50:09;10.20;79.50
66140;DHT22;52945;51.908;8.364;2023-11-21T07:53:10;10.20;79.50
66140;DHT22;52945;51.908;8.364;2023-11-21T07:56:11;10.10;79.60
66140;DHT22;52945;51.908;8.364;2023-11-21T07:59:11;10.20;79.80
66140;DHT22;52945;51.908;8.364;2023-11-21T08:02:12;10.20;79.90
66140;DHT22;52945;51.908;8.364;2023-11-21T08:05:13;10.20;79.90
66140;DHT22;52945;51.908;8.364;2023-11-21T08:08:14;10.20;80.00
66140;DHT22;52945;51.908;8.364;2023-11-21T08:11:15;10.20;80.00
66140;DHT22;52945;51.908;8.364;2023-11-21T08:14:16;10.20;80.10
66140;DHT22;52945;51.908;8.364;2023-11-21T08:17:17;10.20;80.10
66140;DHT22;52945;51.908;8.364;2023-11-21T08:20:20;10.20;80.20
66140;DHT22;52945;51.908;8.364;2023-11-21T08:23:23;10.30;80.10
66140;DHT22;52945;51.908;8.364;2023-11-21T08:26:26;10.30;80.10
66140;DHT22;52945;51.908;8.364;2023-11-21T08:29:27;10.30;80.10
66140;DHT22;52945;51.908;8.364;2023-11-21T08:32:28;10.30;80.10
66140;DHT22;52945;51.908;8.364;2023-11-21T08:35:31;10.30;80.10
66140;DHT22;52945;51.908;8.364;2023-11-21T08:38:31;10.30;80.20
66140;DHT22;52945;51.908;8.364;2023-11-21T08:41:32;10.30;80.20
66140;DHT22;52945;51.908;8.364;2023-11-21T08:44:33;10.40;80.30
66140;DHT22;52945;51.908;8.364;2023-11-21T08:47:34;10.40;80.30
66140;DHT22;52945;51.908;8.364;2023-11-21T08:50:35;10.40;80.30
66140;DHT22;52945;51.908;8.364;2023-11-21T08:53:35;10.40;80.30
66140;DHT22;52945;51.908;8.364;2023-11-21T08:56:36;10.40;80.50
66140;DHT22;52945;51.908;8.364;2023-11-21T08:59:36;10.40;80.50
66140;DHT22;52945;51.908;8.364;2023-11-21T09:02:38;10.50;80.60
66140;DHT22;52945;51.908;8.364;2023-11-21T09:05:39;10.40;80.50
66140;DHT22;52945;51.908;8.364;2023-11-21T09:08:40;10.50;80.60
66140;DHT22;52945;51.908;8.364;2023-11-21T09:11:42;10.50;80.60
66140;DHT22;52945;51.908;8.364;2023-11-21T09:14:44;10.40;80.60
66140;DHT22;52945;51.908;8.364;2023-11-21T09:17:45;10.50;80.70
66140;DHT22;52945;51.908;8.364;2023-11-21T09:20:46;10.50;80.70
66140;DHT22;52945;51.908;8.364;2023-11-21T09:23:47;10.50;80.70
66140;DHT22;52945;51.908;8.364;2023-11-21T09:26:48;10.60;80.70
66140;DHT22;52945;51.908;8.364;2023-11-21T09:29:49;10.60;80.60
66140;DHT22;52945;51.908;8.364;2023-11-21T09:32:50;10.50;80.70
66140;DHT22;52945;51.908;8.364;2023-11-21T09:35:50;10.60;80.70
66140;DHT22;52945;51.908;8.364;2023-11-21T09:38:52;10.60;80.70
66140;DHT22;52945;51.908;8.364;2023-11-21T09:41:59;10.60;80.70
66140;DHT22;52945;51.908;8.364;2023-11-21T09:45:29;10.60;80.70
66140;DHT22;52945;51.908;8.364;2023-11-21T09:48:35;10.60;80.70
66140;DHT22;52945;51.908;8.364;2023-11-21T09:51:42;10.70;80.60
66140;DHT22;52945;51.908;8.364;2023-11-21T09:54:43;10.70;80.70
66140;DHT22;52945;51.908;8.364;2023-11-21T09:57:44;10.70;80.70
66140;DHT22;52945;51.908;8.364;2023-11-21T10:00:49;10.60;80.70
66140;DHT22;52945;51.908;8.364;2023-11-21T10:03:49;10.70;80.80
66140;DHT22;52945;51.908;8.364;2023-11-21T10:06:52;10.70;80.80
66140;DHT22;52945;51.908;8.364;2023-11-21T10:09:54;10.70;80.80
66140;DHT22;52945;51.908;8.364;2023-11-21T10:12:56;10.70;80.90
66140;DHT22;52945;51.908;8.364;2023-11-21T10:15:56;10.80;80.90
66140;DHT22;52945;51.908;8.364;2023-11-21T10:18:59;10.70;80.90
66140;DHT22;52945;51.908;8.364;2023-11-21T10:22:00;10.80;80.90
66140;DHT22;52945;51.908;8.364;2023-11-21T10:25:02;10.80;80.90
66140;DHT22;52945;51.908;8.364;2023-11-21T10:28:03;10.90;81.00
66140;DHT22;52945;51.908;8.364;2023-11-21T10:31:07;10.90;81.00
66140;DHT22;52945;51.908;8.364;2023-11-21T10:34:15;10.90;81.10
66140;DHT22;52945;51.908;8.364;2023-11-21T10:37:16;10.90;81.00
66140;DHT22;52945;51.908;8.364;2023-11-21T10:40:16;11.00;81.00
66140;DHT22;52945;51.908;8.364;2023-11-21T10:43:17;11.00;81.10
66140;DHT22;52945;51.908;8.364;2023-11-21T10:46:19;11.00;81.10
66140;DHT22;52945;51.908;8.364;2023-11-21T10:49:20;11.00;80.70
66140;DHT22;52945;51.908;8.364;2023-11-21T10:52:21;11.00;80.10
66140;DHT22;52945;51.908;8.364;2023-11-21T10:55:21;11.10;80.20
66140;DHT22;52945;51.908;8.364;2023-11-21T10:58:24;11.10;80.30
66140;DHT22;52945;51.908;8.364;2023-11-21T11:01:27;11.10;80.30
66140;DHT22;52945;51.908;8.364;2023-11-21T11:04:30;11.10;80.20
66140;DHT22;52945;51.908;8.364;2023-11-21T11:07:30;11.10;80.00
66140;DHT22;52945;51.908;8.364;2023-11-21T11:10:34;11.10;80.00
66140;DHT22;52945;51.908;8.364;2023-11-21T11:13:35;11.10;80.00
66140;DHT22;52945;51.908;8.364;2023-11-21T11:16:38;11.20;79.90
66140;DHT22;52945;51.908;8.364;2023-11-21T11:19:41;11.20;79.80
66140;DHT22;52945;51.908;8.364;2023-11-21T11:29:26;11.10;79.40
66140;DHT22;52945;51.908;8.364;2023-11-21T11:32:50;11.10;79.30
66140;DHT22;52945;51.908;8.364;2023-11-21T11:38:54;11.10;79.30
66140;DHT22;52945;51.908;8.364;2023-11-21T11:42:02;11.00;79.40
66140;DHT22;52945;51.908;8.364;2023-11-21T11:45:19;11.10;79.30
66140;DHT22;52945;51.908;8.364;2023-11-21T11:48:22;11.00;79.10
66140;DHT22;52945;51.908;8.364;2023-11-21T11:51:23;11.00;79.20
66140;DHT22;52945;51.908;8.364;2023-11-21T11:54:36;10.90;79.00
66140;DHT22;52945;51.908;8.364;2023-11-21T11:57:41;10.80;79.20
66140;DHT22;52945;51.908;8.364;2023-11-21T12:00:42;10.90;79.20
66140;DHT22;52945;51.908;8.364;2023-11-21T12:03:42;10.90;79.00
66140;DHT22;52945;51.908;8.364;2023-11-21T12:06:43;10.90;79.10
66140;DHT22;52945;51.908;8.364;2023-11-21T12:09:44;10.90;79.00
66140;DHT22;52945;51.908;8.364;2023-11-21T12:12:49;10.80;78.70
66140;DHT22;52945;51.908;8.364;2023-11-21T12:15:50;10.80;78.60
66140;DHT22;52945;51.908;8.364;2023-11-21T12:18:50;10.90;78.50
66140;DHT22;52945;51.908;8.364;2023-11-21T12:21:51;10.90;77.60
66140;DHT22;52945;51.908;8.364;2023-11-21T12:24:52;10.80;77.20
66140;DHT22;52945;51.908;8.364;2023-11-21T12:27:53;10.70;77.50
66140;DHT22;52945;51.908;8.364;2023-11-21T12:30:54;10.70;77.90
66140;DHT22;52945;51.908;8.364;2023-11-21T12:33:55;10.70;78.00
66140;DHT22;52945;51.908;8.364;2023-11-21T12:36:56;10.70;77.60
66140;DHT22;52945;51.908;8.364;2023-11-21T12:39:57;10.70;77.60
66140;DHT22;52945;51.908;8.364;2023-11-21T12:42:59;10.70;77.60
66140;DHT22;52945;51.908;8.364;2023-11-21T12:46:05;10.70;77.60
66140;DHT22;52945;51.908;8.364;2023-11-21T12:49:06;10.70;77.50
66140;DHT22;52945;51.908;8.364;2023-11-21T12:52:08;10.60;77.20
66140;DHT22;52945;51.908;8.364;2023-11-21T12:55:09;10.70;77.30
66140;DHT22;52945;51.908;8.364;2023-11-21T12:58:11;10.60;77.20
66140;DHT22;52945;51.908;8.364;2023-11-21T13:01:13;10.60;77.40
66140;DHT22;52945;51.908;8.364;2023-11-21T13:04:18;10.60;77.20
66140;DHT22;52945;51.908;8.364;2023-11-21T13:07:19;10.70;76.50
66140;DHT22;52945;51.908;8.364;2023-11-21T13:10:24;10.60;75.90
66140;DHT22;52945;51.908;8.364;2023-11-21T13:13:28;10.60;75.80
66140;DHT22;52945;51.908;8.364;2023-11-21T13:16:29;10.60;75.90
66140;DHT22;52945;51.908;8.364;2023-11-21T13:19:30;10.60;75.20
66140;DHT22;52945;51.908;8.364;2023-11-21T13:22:31;10.60;75.40
66140;DHT22;52945;51.908;8.364;2023-11-21T13:25:33;10.60;75.80
66140;DHT22;52945;51.908;8.364;2023-11-21T13:28:35;10.60;75.90
66140;DHT22;52945;51.908;8.364;2023-11-21T13:31:36;10.60;75.00
66140;DHT22;52945;51.908;8.364;2023-11-21T13:34:37;10.60;75.20
66140;DHT22;52945;51.908;8.364;2023-11-21T13:37:39;10.60;74.80
66140;DHT22;52945;51.908;8.364;2023-11-21T13:40:40;10.60;75.00
66140;DHT22;52945;51.908;8.364;2023-11-21T13:43:46;10.60;74.40
66140;DHT22;52945;51.908;8.364;2023-11-21T13:46:54;10.60;74.60
66140;DHT22;52945;51.908;8.364;2023-11-21T13:49:57;10.60;74.70
66140;DHT22;52945;51.908;8.364;2023-11-21T13:53:01;10.60;74.50
66140;DHT22;52945;51.908;8.364;2023-11-21T13:56:19;10.60;74.00
66140;DHT22;52945;51.908;8.364;2023-11-21T13:59:24;10.50;73.90
66140;DHT22;52945;51.908;8.364;2023-11-21T14:02:28;10.50;73.60
66140;DHT22;52945;51.908;8.364;2023-11-21T14:05:35;10.50;73.90
66140;DHT22;52945;51.908;8.364;2023-11-21T14:08:35;10.40;74.10
66140;DHT22;52945;51.908;8.364;2023-11-21T14:11:36;10.40;74.10
66140;DHT22;52945;51.908;8.364;2023-11-21T14:14:38;10.40;74.40
66140;DHT22;52945;51.908;8.364;2023-11-21T14:17:39;10.40;73.60
66140;DHT22;52945;51.908;8.364;2023-11-21T14:20:41;10.40;73.70
66140;DHT22;52945;51.908;8.364;2023-11-21T14:23:42;10.40;73.80
66140;DHT22;52945;51.908;8.364;2023-11-21T14:26:45;10.30;73.20
66140;DHT22;52945;51.908;8.364;2023-11-21T14:29:48;10.40;72.70
66140;DHT22;52945;51.908;8.364;2023-11-21T14:32:49;10.30;72.80
66140;DHT22;52945;51.908;8.364;2023-11-21T14:35:49;10.40;73.10
66140;DHT22;52945;51.908;8.364;2023-11-21T14:38:50;10.30;73.60
66140;DHT22;52945;51.908;8.364;2023-11-21T14:41:52;10.30;73.50
66140;DHT22;52945;51.908;8.364;2023-11-21T14:44:59;10.30;73.60
66140;DHT22;52945;51.908;8.364;2023-11-21T14:48:04;10.30;73.70
66140;DHT22;52945;51.908;8.364;2023-11-21T14:51:05;10.20;73.30
66140;DHT22;52945;51.908;8.364;2023-11-21T14:54:05;10.30;73.20
66140;DHT22;52945;51.908;8.364;2023-11-21T14:57:11;10.30;72.60
66140;DHT22;52945;51.908;8.364;2023-11-21T15:00:13;10.30;72.20
66140;DHT22;52945;51.908;8.364;2023-11-21T15:03:32;10.20;71.60
66140;DHT22;52945;51.908;8.364;2023-11-21T15:06:33;10.20;71.20
66140;DHT22;52945;51.908;8.364;2023-11-21T15:09:34;10.10;71.50
66140;DHT22;52945;51.908;8.364;2023-11-21T15:12:34;10.10;71.60
66140;DHT22;52945;51.908;8.364;2023-11-21T15:15:38;10.10;72.10
66140;DHT22;52945;51.908;8.364;2023-11-21T15:18:40;10.10;71.50
66140;DHT22;52945;51.908;8.364;2023-11-21T15:21:40;10.10;71.30
66140;DHT22;52945;51.908;8.364;2023-11-21T15:24:41;10.00;71.30
66140;DHT22;52945;51.908;8.364;2023-11-21T15:27:43;10.00;71.30
66140;DHT22;52945;51.908;8.364;2023-11-21T15:30:43;10.00;71.50
66140;DHT22;52945;51.908;8.364;2023-11-21T15:33:46;10.00;71.30
66140;DHT22;52945;51.908;8.364;2023-11-21T15:36:48;10.00;71.10
66140;DHT22;52945;51.908;8.364;2023-11-21T15:39:53;9.90;70.40
66140;DHT22;52945;51.908;8.364;2023-11-21T15:42:53;9.90;71.10
66140;DHT22;52945;51.908;8.364;2023-11-21T15:45:54;9.80;71.00
66140;DHT22;52945;51.908;8.364;2023-11-21T15:48:55;9.80;71.10
66140;DHT22;52945;51.908;8.364;2023-11-21T15:51:56;9.80;71.50
66140;DHT22;52945;51.908;8.364;2023-11-21T15:54:59;9.80;71.40
66140;DHT22;52945;51.908;8.364;2023-11-21T15:58:00;9.70;71.90
66140;DHT22;52945;51.908;8.364;2023-11-21T16:01:04;9.80;72.40
66140;DHT22;52945;51.908;8.364;2023-11-21T16:04:05;9.70;72.80
66140;DHT22;52945;51.908;8.364;2023-11-21T16:07:06;9.70;73.20
66140;DHT22;52945;51.908;8.364;2023-11-21T16:10:08;9.70;72.80
66140;DHT22;52945;51.908;8.364;2023-11-21T16:13:11;9.70;72.40
66140;DHT22;52945;51.908;8.364;2023-11-21T16:16:12;9.60;73.00
66140;DHT22;52945;51.908;8.364;2023-11-21T16:19:12;9.60;73.70
66140;DHT22;52945;51.908;8.364;2023-11-21T16:22:13;9.60;73.50
66140;DHT22;52945;51.908;8.364;2023-11-21T16:25:15;9.60;73.80
66140;DHT22;52945;51.908;8.364;2023-11-21T16:28:15;9.60;73.90
66140;DHT22;52945;51.908;8.364;2023-11-21T16:31:23;9.60;74.10
66140;DHT22;52945;51.908;8.364;2023-11-21T16:34:24;9.70;74.10
66140;DHT22;52945;51.908;8.364;2023-11-21T16:37:24;9.60;74.00
66140;DHT22;52945;51.908;8.364;2023-11-21T16:40:25;9.60;73.90
66140;DHT22;52945;51.908;8.364;2023-11-21T16:43:25;9.60;74.30
66140;DHT22;52945;51.908;8.364;2023-11-21T16:46:26;9.60;73.70
66140;DHT22;52945;51.908;8.364;2023-11-21T16:49:27;9.60;73.30
66140;DHT22;52945;51.908;8.364;2023-11-21T16:52:30;9.60;73.10
66140;DHT22;52945;51.908;8.364;2023-11-21T16:55:31;9.60;72.90
66140;DHT22;52945;51.908;8.364;2023-11-21T16:58:31;9.60;73.00
66140;DHT22;52945;51.908;8.364;2023-11-21T17:01:33;9.50;72.70
66140;DHT22;52945;51.908;8.364;2023-11-21T17:04:34;9.50;72.70
66140;DHT22;52945;51.908;8.364;2023-11-21T17:07:34;9.50;72.10
66140;DHT22;52945;51.908;8.364;2023-11-21T17:10:35;9.50;72.80
66140;DHT22;52945;51.908;8.364;2023-11-21T17:13:36;9.50;72.70
66140;DHT22;52945;51.908;8.364;2023-11-21T17:16:37;9.40;73.00
66140;DHT22;52945;51.908;8.364;2023-11-21T17:19:37;9.50;72.60
66140;DHT22;52945;51.908;8.364;2023-11-21T17:22:39;9.40;72.80
66140;DHT22;52945;51.908;8.364;2023-11-21T17:25:40;9.40;73.40
66140;DHT22;52945;51.908;8.364;2023-11-21T17:28:42;9.40;73.20
66140;DHT22;52945;51.908;8.364;2023-11-21T17:31:45;9.50;72.90
66140;DHT22;52945;51.908;8.364;2023-11-21T17:34:46;9.40;73.20
66140;DHT22;52945;51.908;8.364;2023-11-21T17:37:48;9.40;73.50
66140;DHT22;52945;51.908;8.364;2023-11-21T17:40:49;9.40;73.10
66140;DHT22;52945;51.908;8.364;2023-11-21T17:43:49;9.40;73.00
66140;DHT22;52945;51.908;8.364;2023-11-21T17:46:50;9.40;72.80
66140;DHT22;52945;51.908;8.364;2023-11-21T17:49:51;9.40;73.20
66140;DHT22;52945;51.908;8.364;2023-11-21T17:52:52;9.40;73.60
66140;DHT22;52945;51.908;8.364;2023-11-21T17:55:54;9.40;73.70
66140;DHT22;52945;51.908;8.364;2023-11-21T17:58:55;9.40;73.10
66140;DHT22;52945;51.908;8.364;2023-11-21T18:01:56;9.30;72.60
66140;DHT22;52945;51.908;8.364;2023-11-21T18:04:58;9.30;72.20
66140;DHT22;52945;51.908;8.364;2023-11-21T18:08:01;9.40;72.50
66140;DHT22;52945;51.908;8.364;2023-11-21T18:11:02;9.30;72.80
66140;DHT22;52945;51.908;8.364;2023-11-21T18:14:05;9.30;72.00
66140;DHT22;52945;51.908;8.364;2023-11-21T18:17:10;9.30;71.40
66140;DHT22;52945;51.908;8.364;2023-11-21T18:20:11;9.30;71.20
66140;DHT22;52945;51.908;8.364;2023-11-21T18:23:11;9.20;71.70
66140;DHT22;52945;51.908;8.364;2023-11-21T18:26:16;9.30;72.20
66140;DHT22;52945;51.908;8.364;2023-11-21T18:29:17;9.30;71.90
66140;DHT22;52945;51.908;8.364;2023-11-21T18:32:20;9.30;71.40
66140;DHT22;52945;51.908;8.364;2023-11-21T18:35:23;9.30;72.30
66140;DHT22;52945;51.908;8.364;2023-11-21T18:38:23;9.20;72.90
66140;DHT22;52945;51.908;8.364;2023-11-21T18:41:24;9.20;71.80
66140;DHT22;52945;51.908;8.364;2023-11-21T18:44:25;9.20;72.00
66140;DHT22;52945;51.908;8.364;2023-11-21T18:47:26;9.20;72.90
66140;DHT22;52945;51.908;8.364;2023-11-21T18:50:27;9.20;72.50
66140;DHT22;52945;51.908;8.364;2023-11-21T18:53:28;9.20;73.20
66140;DHT22;52945;51.908;8.364;2023-11-21T18:56:32;9.20;72.40
66140;DHT22;52945;51.908;8.364;2023-11-21T18:59:32;9.10;72.00
66140;DHT22;52945;51.908;8.364;2023-11-21T19:02:34;9.10;72.90
66140;DHT22;52945;51.908;8.364;2023-11-21T19:05:35;9.20;73.50
66140;DHT22;52945;51.908;8.364;2023-11-21T19:08:35;9.20;72.90
66140;DHT22;52945;51.908;8.364;2023-11-21T19:11:36;9.20;73.00
66140;DHT22;52945;51.908;8.364;2023-11-21T19:14:36;9.10;73.10
66140;DHT22;52945;51.908;8.364;2023-11-21T19:17:37;9.20;73.20
66140;DHT22;52945;51.908;8.364;2023-11-21T19:20:39;9.20;72.90
66140;DHT22;52945;51.908;8.364;2023-11-21T19:23:41;9.20;73.30